< < Back
Terminal Aerodrome Forecast


Current Version              Previous Versions:   1  2  3  4  5  6  7  8  9  

Terminal Aerodrome Forecast

790
FTUS42 KILM 221700
TAFILM
TAF
KILM 221721Z 2218/2318 06004KT P6SM SKC
     FM230600 VRB03KT P6SM SCT100 BKN200
     FM231300 07004KT P6SM VCSH SCT040 BKN090
     FM231500 08005KT 6SM -RA SCT025 BKN040
     FM231700 10005KT 5SM -RA BR SCT015 BKN020=

Latest METAR

450
SAUS70 KWBC 230000 RRR
MTRILM
METAR KILM 222353Z 00000KT 10SM CLR 07/05 A3038 RMK AO2 SLP288 T00720050
10144 20072 56007


USA.gov is the U.S. government's official web portal to all federal, state and local government web resources and services.